Basin, Montana
Current Conditions -  °F | °C
As of 7:53 PM on Monday 20 Oct 2014 (Local Time) from KBTM Reporting Station
Overcast Overcast  
Wind Chill: 17°   Ceiling: 11000
Heat Index: 17°   Visibility: 10mi
Dew Point: -1°   Wind: 13mph
Humidity: 30%   Direction: 180°S
Pressure: 29.87"   Gusts: NA
Location:  46.27°N, 112.26°W
Report Text: KBTM 210153Z AUTO 18011KT 10SM OVC110 17/M01 A2987 RMK AO2 SLP098 T01721006
Loading
Personal Weather Stations






























Interactive Weather Map
Tropical Storm Tracking
New forecast layout! Learn more

10-Day Weather Forecast

Advertisements
Track Severe Weather on mobile